sensor_id;sensor_type;location;lat;lon;timestamp;pressure;altitude;pressure_sealevel;temperature;humidity
75006;BME280;63553;51.814;4.600;2023-03-01T00:01:22;103344.00;;;13.01;77.91
75006;BME280;63553;51.814;4.600;2023-03-01T00:03:48;103347.94;;;13.00;77.73
75006;BME280;63553;51.814;4.600;2023-03-01T00:06:14;103340.13;;;12.97;77.71
75006;BME280;63553;51.814;4.600;2023-03-01T00:08:39;103344.56;;;12.93;77.99
75006;BME280;63553;51.814;4.600;2023-03-01T00:11:17;103344.00;;;12.96;77.79
75006;BME280;63553;51.814;4.600;2023-03-01T00:13:43;103342.91;;;12.92;77.90
75006;BME280;63553;51.814;4.600;2023-03-01T00:16:12;103340.13;;;12.92;77.55
75006;BME280;63553;51.814;4.600;2023-03-01T00:18:38;103335.63;;;12.91;77.42
75006;BME280;63553;51.814;4.600;2023-03-01T00:21:03;103341.47;;;12.89;77.23
75006;BME280;63553;51.814;4.600;2023-03-01T00:23:29;103345.13;;;12.90;77.63
75006;BME280;63553;51.814;4.600;2023-03-01T00:25:54;103344.28;;;12.89;77.53
75006;BME280;63553;51.814;4.600;2023-03-01T00:28:20;103343.47;;;12.89;77.45
75006;BME280;63553;51.814;4.600;2023-03-01T00:30:46;103336.44;;;12.86;77.61
75006;BME280;63553;51.814;4.600;2023-03-01T00:33:11;103337.00;;;12.83;77.43
75006;BME280;63553;51.814;4.600;2023-03-01T00:35:37;103341.47;;;12.84;77.47
75006;BME280;63553;51.814;4.600;2023-03-01T00:38:02;103344.28;;;12.84;77.47
75006;BME280;63553;51.814;4.600;2023-03-01T00:40:31;103333.38;;;12.77;77.44
75006;BME280;63553;51.814;4.600;2023-03-01T00:42:57;103335.59;;;12.80;77.19
75006;BME280;63553;51.814;4.600;2023-03-01T00:45:22;103343.69;;;12.77;77.41
75006;BME280;63553;51.814;4.600;2023-03-01T00:47:49;103342.34;;;12.79;77.41
75006;BME280;63553;51.814;4.600;2023-03-01T00:50:15;103346.47;;;12.77;77.25
75006;BME280;63553;51.814;4.600;2023-03-01T00:52:41;103343.13;;;12.75;77.28
75006;BME280;63553;51.814;4.600;2023-03-01T00:55:07;103337.56;;;12.75;77.54
75006;BME280;63553;51.814;4.600;2023-03-01T00:57:32;103335.88;;;12.74;77.25
75006;BME280;63553;51.814;4.600;2023-03-01T00:59:58;103330.56;;;12.72;77.12
75006;BME280;63553;51.814;4.600;2023-03-01T01:02:23;103340.63;;;12.73;77.36
75006;BME280;63553;51.814;4.600;2023-03-01T01:04:49;103333.91;;;12.69;77.07
75006;BME280;63553;51.814;4.600;2023-03-01T01:07:15;103332.53;;;12.72;77.14
75006;BME280;63553;51.814;4.600;2023-03-01T01:09:40;103331.97;;;12.70;77.25
75006;BME280;63553;51.814;4.600;2023-03-01T01:12:06;103335.88;;;12.69;77.08
75006;BME280;63553;51.814;4.600;2023-03-01T01:14:31;103328.03;;;12.66;77.08
75006;BME280;63553;51.814;4.600;2023-03-01T01:16:57;103330.00;;;12.65;77.00
75006;BME280;63553;51.814;4.600;2023-03-01T01:19:23;103327.19;;;12.65;77.35
75006;BME280;63553;51.814;4.600;2023-03-01T01:21:49;103315.22;;;12.65;76.86
75006;BME280;63553;51.814;4.600;2023-03-01T01:24:15;103314.94;;;12.61;76.89
75006;BME280;63553;51.814;4.600;2023-03-01T01:26:41;103318.81;;;12.65;76.54
75006;BME280;63553;51.814;4.600;2023-03-01T01:29:08;103311.00;;;12.62;76.80
75006;BME280;63553;51.814;4.600;2023-03-01T01:31:35;103302.09;;;12.60;76.67
75006;BME280;63553;51.814;4.600;2023-03-01T01:34:01;103294.25;;;12.57;76.84
75006;BME280;63553;51.814;4.600;2023-03-01T01:36:27;103295.38;;;12.56;76.68
75006;BME280;63553;51.814;4.600;2023-03-01T01:38:53;103292.56;;;12.56;76.60
75006;BME280;63553;51.814;4.600;2023-03-01T01:41:19;103287.28;;;12.55;76.74
75006;BME280;63553;51.814;4.600;2023-03-01T01:43:47;103287.84;;;12.57;76.40
75006;BME280;63553;51.814;4.600;2023-03-01T01:48:52;103279.16;;;12.53;76.86
75006;BME280;63553;51.814;4.600;2023-03-01T01:51:25;103274.72;;;12.52;76.54
75006;BME280;63553;51.814;4.600;2023-03-01T01:53:56;103269.16;;;12.52;76.74
75006;BME280;63553;51.814;4.600;2023-03-01T01:56:26;103265.78;;;12.50;76.52
75006;BME280;63553;51.814;4.600;2023-03-01T01:58:54;103266.06;;;12.49;76.22
75006;BME280;63553;51.814;4.600;2023-03-01T02:01:20;103259.63;;;12.48;76.49
75006;BME280;63553;51.814;4.600;2023-03-01T02:03:46;103265.50;;;12.47;76.41
75006;BME280;63553;51.814;4.600;2023-03-01T02:06:19;103273.03;;;12.46;76.19
75006;BME280;63553;51.814;4.600;2023-03-01T02:08:47;103257.41;;;12.45;76.32
75006;BME280;63553;51.814;4.600;2023-03-01T02:11:14;103268.56;;;12.45;76.45
75006;BME280;63553;51.814;4.600;2023-03-01T02:13:40;103256.84;;;12.43;76.07
75006;BME280;63553;51.814;4.600;2023-03-01T02:16:12;103263.28;;;12.44;76.28
75006;BME280;63553;51.814;4.600;2023-03-01T02:18:40;103261.59;;;12.43;76.22
75006;BME280;63553;51.814;4.600;2023-03-01T02:23:37;103264.38;;;12.38;76.21
75006;BME280;63553;51.814;4.600;2023-03-01T02:26:15;103259.06;;;12.41;76.18
75006;BME280;63553;51.814;4.600;2023-03-01T02:28:43;103255.72;;;12.39;76.24
75006;BME280;63553;51.814;4.600;2023-03-01T02:31:11;103256.84;;;12.38;76.06
75006;BME280;63553;51.814;4.600;2023-03-01T02:33:58;103248.75;;;12.37;75.91
75006;BME280;63553;51.814;4.600;2023-03-01T02:36:26;103249.03;;;12.35;76.08
75006;BME280;63553;51.814;4.600;2023-03-01T02:38:57;103240.66;;;12.35;76.19
75006;BME280;63553;51.814;4.600;2023-03-01T02:41:24;103240.06;;;12.33;76.29
75006;BME280;63553;51.814;4.600;2023-03-01T02:43:51;103236.72;;;12.31;76.31
75006;BME280;63553;51.814;4.600;2023-03-01T02:46:22;103241.75;;;12.29;76.20
75006;BME280;63553;51.814;4.600;2023-03-01T02:48:50;103246.19;;;12.30;76.18
75006;BME280;63553;51.814;4.600;2023-03-01T02:56:38;103243.13;;;12.26;76.07
75006;BME280;63553;51.814;4.600;2023-03-01T02:59:04;103247.03;;;12.25;75.95
75006;BME280;63553;51.814;4.600;2023-03-01T03:01:29;103245.34;;;12.24;76.00
75006;BME280;63553;51.814;4.600;2023-03-01T03:04:09;103238.94;;;12.24;75.88
75006;BME280;63553;51.814;4.600;2023-03-01T03:06:36;103235.59;;;12.22;76.27
75006;BME280;63553;51.814;4.600;2023-03-01T03:09:02;103240.88;;;12.23;75.69
75006;BME280;63553;51.814;4.600;2023-03-01T03:11:27;103246.47;;;12.23;75.88
75006;BME280;63553;51.814;4.600;2023-03-01T03:13:53;103236.69;;;12.21;75.73
75006;BME280;63553;51.814;4.600;2023-03-01T03:16:19;103233.66;;;12.22;75.74
75006;BME280;63553;51.814;4.600;2023-03-01T03:18:44;103237.28;;;12.23;75.70
75006;BME280;63553;51.814;4.600;2023-03-01T03:21:11;103227.78;;;12.19;75.95
75006;BME280;63553;51.814;4.600;2023-03-01T03:23:38;103225.81;;;12.19;75.73
75006;BME280;63553;51.814;4.600;2023-03-01T03:26:04;103223.88;;;12.20;75.78
75006;BME280;63553;51.814;4.600;2023-03-01T03:28:31;103217.47;;;12.19;75.94
75006;BME280;63553;51.814;4.600;2023-03-01T03:30:57;103224.44;;;12.17;75.46
75006;BME280;63553;51.814;4.600;2023-03-01T03:33:24;103218.84;;;12.17;75.70
75006;BME280;63553;51.814;4.600;2023-03-01T03:35:50;103223.59;;;12.16;75.64
75006;BME280;63553;51.814;4.600;2023-03-01T03:38:17;103219.97;;;12.16;75.42
75006;BME280;63553;51.814;4.600;2023-03-01T03:41:07;103214.63;;;12.14;75.78
75006;BME280;63553;51.814;4.600;2023-03-01T03:43:36;103214.63;;;12.14;75.54
75006;BME280;63553;51.814;4.600;2023-03-01T03:46:03;103218.56;;;12.13;75.52
75006;BME280;63553;51.814;4.600;2023-03-01T03:48:32;103217.72;;;12.13;75.38
75006;BME280;63553;51.814;4.600;2023-03-01T03:50:58;103214.63;;;12.09;75.32
75006;BME280;63553;51.814;4.600;2023-03-01T03:53:25;103210.44;;;12.12;75.52
75006;BME280;63553;51.814;4.600;2023-03-01T03:55:51;103208.22;;;12.09;75.54
75006;BME280;63553;51.814;4.600;2023-03-01T03:58:17;103208.78;;;12.11;75.38
75006;BME280;63553;51.814;4.600;2023-03-01T04:00:45;103205.72;;;12.07;75.61
75006;BME280;63553;51.814;4.600;2023-03-01T04:03:12;103200.97;;;12.08;75.13
75006;BME280;63553;51.814;4.600;2023-03-01T04:05:39;103206.28;;;12.09;75.45
75006;BME280;63553;51.814;4.600;2023-03-01T04:08:05;103207.09;;;12.05;75.17
75006;BME280;63553;51.814;4.600;2023-03-01T04:10:37;103202.38;;;12.05;75.36
75006;BME280;63553;51.814;4.600;2023-03-01T04:13:04;103209.59;;;12.06;75.24
75006;BME280;63553;51.814;4.600;2023-03-01T04:15:30;103204.88;;;12.02;75.13
75006;BME280;63553;51.814;4.600;2023-03-01T04:17:56;103214.88;;;12.03;75.15
75006;BME280;63553;51.814;4.600;2023-03-01T04:20:24;103213.78;;;12.04;75.42
75006;BME280;63553;51.814;4.600;2023-03-01T04:22:58;103210.44;;;12.02;75.24
75006;BME280;63553;51.814;4.600;2023-03-01T04:25:23;103197.59;;;11.96;75.12
75006;BME280;63553;51.814;4.600;2023-03-01T04:27:49;103216.88;;;12.02;75.04
75006;BME280;63553;51.814;4.600;2023-03-01T04:30:15;103205.72;;;12.02;75.51
75006;BME280;63553;51.814;4.600;2023-03-01T04:32:40;103210.69;;;12.00;74.76
75006;BME280;63553;51.814;4.600;2023-03-01T04:35:06;103210.41;;;11.97;75.02
75006;BME280;63553;51.814;4.600;2023-03-01T04:37:31;103213.19;;;11.97;74.96
75006;BME280;63553;51.814;4.600;2023-03-01T04:39:56;103206.50;;;11.98;75.13
75006;BME280;63553;51.814;4.600;2023-03-01T04:42:22;103189.78;;;11.93;75.00
75006;BME280;63553;51.814;4.600;2023-03-01T04:44:48;103191.44;;;11.94;75.18
75006;BME280;63553;51.814;4.600;2023-03-01T04:47:16;103187.00;;;11.93;74.93
75006;BME280;63553;51.814;4.600;2023-03-01T04:49:42;103187.25;;;11.91;74.94
75006;BME280;63553;51.814;4.600;2023-03-01T04:52:07;103195.63;;;11.91;75.05
75006;BME280;63553;51.814;4.600;2023-03-01T04:54:33;103181.69;;;11.91;75.20
75006;BME280;63553;51.814;4.600;2023-03-01T04:57:00;103183.38;;;11.92;75.04
75006;BME280;63553;51.814;4.600;2023-03-01T04:59:25;103180.03;;;11.90;75.10
75006;BME280;63553;51.814;4.600;2023-03-01T05:01:51;103186.41;;;11.91;75.07
75006;BME280;63553;51.814;4.600;2023-03-01T05:04:17;103173.59;;;11.90;74.95
75006;BME280;63553;51.814;4.600;2023-03-01T05:06:43;103174.16;;;11.87;74.88
75006;BME280;63553;51.814;4.600;2023-03-01T05:09:08;103163.56;;;11.84;75.06
75006;BME280;63553;51.814;4.600;2023-03-01T05:11:34;103165.50;;;11.88;75.13
75006;BME280;63553;51.814;4.600;2023-03-01T05:14:08;103159.66;;;11.90;74.82
75006;BME280;63553;51.814;4.600;2023-03-01T05:16:34;103163.84;;;11.87;74.82
75006;BME280;63553;51.814;4.600;2023-03-01T05:19:02;103158.28;;;11.87;74.83
75006;BME280;63553;51.814;4.600;2023-03-01T05:21:37;103156.59;;;11.86;74.95
75006;BME280;63553;51.814;4.600;2023-03-01T05:24:22;103149.31;;;11.85;74.76
75006;BME280;63553;51.814;4.600;2023-03-01T05:26:48;103142.09;;;11.84;75.11
75006;BME280;63553;51.814;4.600;2023-03-01T05:29:13;103137.31;;;11.80;74.91
75006;BME280;63553;51.814;4.600;2023-03-01T05:31:38;103140.41;;;11.83;75.07
75006;BME280;63553;51.814;4.600;2023-03-01T05:34:03;103137.06;;;11.81;74.96
75006;BME280;63553;51.814;4.600;2023-03-01T05:36:29;103137.91;;;11.82;74.56
75006;BME280;63553;51.814;4.600;2023-03-01T05:38:55;103130.09;;;11.84;75.11
75006;BME280;63553;51.814;4.600;2023-03-01T05:41:20;103122.28;;;11.86;75.66
75006;BME280;63553;51.814;4.600;2023-03-01T05:43:46;103122.91;;;12.08;75.59
75006;BME280;63553;51.814;4.600;2023-03-01T05:46:11;103124.84;;;12.48;78.46
75006;BME280;63553;51.814;4.600;2023-03-01T05:48:38;103117.28;;;12.83;78.26
75006;BME280;63553;51.814;4.600;2023-03-01T05:51:04;103118.34;;;13.13;77.87
75006;BME280;63553;51.814;4.600;2023-03-01T05:53:29;103119.38;;;13.42;77.55
75006;BME280;63553;51.814;4.600;2023-03-01T05:55:55;103128.19;;;13.69;76.71
75006;BME280;63553;51.814;4.600;2023-03-01T05:58:20;103127.47;;;13.98;75.85
75006;BME280;63553;51.814;4.600;2023-03-01T06:00:46;103117.47;;;14.25;75.25
75006;BME280;63553;51.814;4.600;2023-03-01T06:03:14;103112.53;;;14.51;74.55
75006;BME280;63553;51.814;4.600;2023-03-01T06:05:40;103103.59;;;14.78;73.41
75006;BME280;63553;51.814;4.600;2023-03-01T06:08:05;103106.59;;;15.10;72.43
75006;BME280;63553;51.814;4.600;2023-03-01T06:10:31;103111.78;;;15.45;71.87
75006;BME280;63553;51.814;4.600;2023-03-01T06:12:56;103103.66;;;15.44;69.79
75006;BME280;63553;51.814;4.600;2023-03-01T06:15:23;103104.31;;;15.36;65.67
75006;BME280;63553;51.814;4.600;2023-03-01T06:17:48;103108.47;;;15.38;65.37
75006;BME280;63553;51.814;4.600;2023-03-01T06:20:19;103117.38;;;15.45;64.62
75006;BME280;63553;51.814;4.600;2023-03-01T06:22:45;103109.22;;;15.49;64.48
75006;BME280;63553;51.814;4.600;2023-03-01T06:25:12;103117.56;;;15.54;64.30
75006;BME280;63553;51.814;4.600;2023-03-01T06:27:38;103119.78;;;15.57;63.97
75006;BME280;63553;51.814;4.600;2023-03-01T06:30:05;103127.97;;;15.72;63.45
75006;BME280;63553;51.814;4.600;2023-03-01T06:32:30;103129.94;;;15.72;63.28
75006;BME280;63553;51.814;4.600;2023-03-01T06:34:56;103132.69;;;15.77;61.45
75006;BME280;63553;51.814;4.600;2023-03-01T06:37:24;103127.00;;;16.38;61.79
75006;BME280;63553;51.814;4.600;2023-03-01T06:39:49;103125.28;;;16.74;61.70
75006;BME280;63553;51.814;4.600;2023-03-01T06:42:14;103127.19;;;16.92;60.22
75006;BME280;63553;51.814;4.600;2023-03-01T06:44:40;103118.59;;;16.84;59.42
75006;BME280;63553;51.814;4.600;2023-03-01T06:47:05;103130.16;;;16.82;59.58
75006;BME280;63553;51.814;4.600;2023-03-01T06:49:30;103121.97;;;16.86;58.81
75006;BME280;63553;51.814;4.600;2023-03-01T06:51:56;103118.94;;;16.82;58.45
75006;BME280;63553;51.814;4.600;2023-03-01T06:54:22;103119.47;;;16.98;57.50
75006;BME280;63553;51.814;4.600;2023-03-01T06:56:48;103120.72;;;17.05;57.33
75006;BME280;63553;51.814;4.600;2023-03-01T06:59:14;103123.34;;;17.15;56.78
75006;BME280;63553;51.814;4.600;2023-03-01T07:01:39;103124.59;;;17.09;57.11
75006;BME280;63553;51.814;4.600;2023-03-01T07:04:04;103119.28;;;17.35;53.34
75006;BME280;63553;51.814;4.600;2023-03-01T07:06:33;103112.06;;;17.70;52.70
75006;BME280;63553;51.814;4.600;2023-03-01T07:08:58;103122.13;;;17.98;52.44
75006;BME280;63553;51.814;4.600;2023-03-01T07:11:24;103118.00;;;18.18;52.03
75006;BME280;63553;51.814;4.600;2023-03-01T07:13:49;103115.63;;;18.33;52.51
75006;BME280;63553;51.814;4.600;2023-03-01T07:16:15;103116.31;;;18.53;52.76
75006;BME280;63553;51.814;4.600;2023-03-01T07:18:40;103107.97;;;18.70;52.62
75006;BME280;63553;51.814;4.600;2023-03-01T07:21:07;103138.06;;;5.98;53.49
75006;BME280;63553;51.814;4.600;2023-03-01T07:23:35;103155.53;;;2.96;67.76
75006;BME280;63553;51.814;4.600;2023-03-01T07:26:00;103157.28;;;2.70;70.36
75006;BME280;63553;51.814;4.600;2023-03-01T07:28:26;103159.38;;;3.46;69.10
75006;BME280;63553;51.814;4.600;2023-03-01T07:30:52;103147.28;;;3.91;66.64
75006;BME280;63553;51.814;4.600;2023-03-01T07:33:17;103150.59;;;3.68;68.45
75006;BME280;63553;51.814;4.600;2023-03-01T07:35:43;103148.47;;;3.70;67.32
75006;BME280;63553;51.814;4.600;2023-03-01T07:38:08;103147.25;;;3.60;67.13
75006;BME280;63553;51.814;4.600;2023-03-01T07:40:34;103150.06;;;2.83;70.29
75006;BME280;63553;51.814;4.600;2023-03-01T07:42:59;103145.38;;;3.54;67.43
75006;BME280;63553;51.814;4.600;2023-03-01T07:45:26;103143.84;;;4.27;66.17
75006;BME280;63553;51.814;4.600;2023-03-01T07:47:52;103161.94;;;3.47;68.74
75006;BME280;63553;51.814;4.600;2023-03-01T07:50:18;103156.13;;;3.17;67.46
75006;BME280;63553;51.814;4.600;2023-03-01T07:52:49;103151.22;;;3.70;68.95
75006;BME280;63553;51.814;4.600;2023-03-01T07:55:15;103153.97;;;3.26;66.42
75006;BME280;63553;51.814;4.600;2023-03-01T07:57:41;103157.16;;;4.97;80.76
75006;BME280;63553;51.814;4.600;2023-03-01T08:00:07;103136.00;;;10.15;77.61
75006;BME280;63553;51.814;4.600;2023-03-01T08:02:33;103135.88;;;13.33;66.23
75006;BME280;63553;51.814;4.600;2023-03-01T08:04:58;103129.25;;;15.61;58.82
75006;BME280;63553;51.814;4.600;2023-03-01T08:07:24;103133.03;;;17.37;54.51
75006;BME280;63553;51.814;4.600;2023-03-01T08:09:49;103122.31;;;18.60;51.50
75006;BME280;63553;51.814;4.600;2023-03-01T08:12:14;103128.78;;;19.53;49.37
75006;BME280;63553;51.814;4.600;2023-03-01T08:14:42;103124.88;;;20.22;47.92
75006;BME280;63553;51.814;4.600;2023-03-01T08:17:07;103127.97;;;20.89;48.20
75006;BME280;63553;51.814;4.600;2023-03-01T08:19:32;103123.25;;;21.48;48.43
75006;BME280;63553;51.814;4.600;2023-03-01T08:22:01;103122.88;;;22.08;48.69
75006;BME280;63553;51.814;4.600;2023-03-01T08:24:26;103111.41;;;22.58;46.46
75006;BME280;63553;51.814;4.600;2023-03-01T08:26:52;103110.88;;;23.10;44.39
75006;BME280;63553;51.814;4.600;2023-03-01T08:29:17;103113.00;;;23.49;43.32
75006;BME280;63553;51.814;4.600;2023-03-01T08:31:43;103114.16;;;23.85;42.21
75006;BME280;63553;51.814;4.600;2023-03-01T08:34:11;103108.69;;;24.16;40.89
75006;BME280;63553;51.814;4.600;2023-03-01T08:36:40;103113.66;;;24.47;40.41
75006;BME280;63553;51.814;4.600;2023-03-01T08:39:06;103112.72;;;24.70;39.35
75006;BME280;63553;51.814;4.600;2023-03-01T08:41:32;103106.31;;;24.89;38.03
75006;BME280;63553;51.814;4.600;2023-03-01T08:43:58;103098.97;;;25.04;38.08
75006;BME280;63553;51.814;4.600;2023-03-01T08:46:33;103099.38;;;25.18;37.26
75006;BME280;63553;51.814;4.600;2023-03-01T08:48:59;103087.69;;;25.23;37.05
75006;BME280;63553;51.814;4.600;2023-03-01T08:51:25;103095.66;;;25.33;35.93
75006;BME280;63553;51.814;4.600;2023-03-01T08:53:51;103090.53;;;25.38;35.77
75006;BME280;63553;51.814;4.600;2023-03-01T08:56:17;103085.94;;;25.50;35.68
75006;BME280;63553;51.814;4.600;2023-03-01T08:58:45;103082.91;;;25.58;35.40
75006;BME280;63553;51.814;4.600;2023-03-01T09:01:13;103078.25;;;25.69;35.15
75006;BME280;63553;51.814;4.600;2023-03-01T09:03:39;103079.50;;;25.87;34.42
75006;BME280;63553;51.814;4.600;2023-03-01T09:06:06;103074.31;;;25.93;34.20
75006;BME280;63553;51.814;4.600;2023-03-01T09:08:35;103068.88;;;26.04;33.53
75006;BME280;63553;51.814;4.600;2023-03-01T09:11:08;103066.91;;;26.08;33.72
75006;BME280;63553;51.814;4.600;2023-03-01T09:13:34;103060.09;;;26.12;34.02
75006;BME280;63553;51.814;4.600;2023-03-01T09:16:01;103063.25;;;26.26;33.72
75006;BME280;63553;51.814;4.600;2023-03-01T09:18:28;103060.03;;;26.28;32.06
75006;BME280;63553;51.814;4.600;2023-03-01T09:21:00;103052.91;;;26.18;33.50
75006;BME280;63553;51.814;4.600;2023-03-01T09:23:25;103053.78;;;26.22;32.00
75006;BME280;63553;51.814;4.600;2023-03-01T09:25:50;103058.53;;;26.15;30.81
75006;BME280;63553;51.814;4.600;2023-03-01T09:28:15;103053.88;;;26.07;31.62
75006;BME280;63553;51.814;4.600;2023-03-01T09:30:41;103049.56;;;25.97;31.28
75006;BME280;63553;51.814;4.600;2023-03-01T09:33:06;103052.66;;;25.88;31.78
75006;BME280;63553;51.814;4.600;2023-03-01T09:35:31;103045.94;;;25.81;31.56
75006;BME280;63553;51.814;4.600;2023-03-01T09:37:57;103038.53;;;25.76;30.49
75006;BME280;63553;51.814;4.600;2023-03-01T09:40:24;103046.16;;;25.72;30.51
75006;BME280;63553;51.814;4.600;2023-03-01T09:45:26;103044.53;;;25.71;30.57
75006;BME280;63553;51.814;4.600;2023-03-01T09:47:53;103043.63;;;25.67;30.70
75006;BME280;63553;51.814;4.600;2023-03-01T09:50:20;103044.81;;;25.66;31.24
75006;BME280;63553;51.814;4.600;2023-03-01T09:53:08;103043.19;;;25.65;32.10
75006;BME280;63553;51.814;4.600;2023-03-01T09:55:50;103040.91;;;25.55;31.31
75006;BME280;63553;51.814;4.600;2023-03-01T10:01:10;103031.94;;;25.22;31.19
75006;BME280;63553;51.814;4.600;2023-03-01T10:06:23;103029.09;;;25.06;30.60
75006;BME280;63553;51.814;4.600;2023-03-01T10:09:10;103023.59;;;24.98;30.79
75006;BME280;63553;51.814;4.600;2023-03-01T10:11:42;103022.41;;;24.99;30.82
75006;BME280;63553;51.814;4.600;2023-03-01T10:14:24;103021.66;;;24.86;30.48
75006;BME280;63553;51.814;4.600;2023-03-01T10:16:59;103024.31;;;24.79;31.19
75006;BME280;63553;51.814;4.600;2023-03-01T10:19:36;103024.75;;;24.65;30.69
75006;BME280;63553;51.814;4.600;2023-03-01T10:22:13;103016.31;;;24.53;30.62
75006;BME280;63553;51.814;4.600;2023-03-01T10:24:39;103026.19;;;24.28;30.02
75006;BME280;63553;51.814;4.600;2023-03-01T10:27:15;103011.97;;;23.88;30.05
75006;BME280;63553;51.814;4.600;2023-03-01T10:29:50;103018.94;;;23.63;30.86
75006;BME280;63553;51.814;4.600;2023-03-01T10:32:21;103020.50;;;23.48;30.19
75006;BME280;63553;51.814;4.600;2023-03-01T10:34:47;103022.75;;;23.31;30.56
75006;BME280;63553;51.814;4.600;2023-03-01T10:37:16;103018.38;;;23.09;30.41
75006;BME280;63553;51.814;4.600;2023-03-01T10:40:07;103006.91;;;22.81;30.39
75006;BME280;63553;51.814;4.600;2023-03-01T10:42:48;103019.56;;;22.51;30.42
75006;BME280;63553;51.814;4.600;2023-03-01T10:45:30;103015.00;;;22.13;30.46
75006;BME280;63553;51.814;4.600;2023-03-01T10:48:11;103003.13;;;21.79;31.38
75006;BME280;63553;51.814;4.600;2023-03-01T10:50:39;102994.22;;;21.47;31.58
75006;BME280;63553;51.814;4.600;2023-03-01T10:53:19;102986.53;;;21.27;32.25
75006;BME280;63553;51.814;4.600;2023-03-01T10:55:46;102979.50;;;21.04;32.88
75006;BME280;63553;51.814;4.600;2023-03-01T11:03:14;102973.16;;;20.23;33.98
75006;BME280;63553;51.814;4.600;2023-03-01T11:05:52;102967.75;;;19.92;34.56
75006;BME280;63553;51.814;4.600;2023-03-01T11:08:39;102964.94;;;19.58;35.27
75006;BME280;63553;51.814;4.600;2023-03-01T11:11:17;102964.72;;;19.28;35.48
75006;BME280;63553;51.814;4.600;2023-03-01T11:16:32;102954.69;;;18.79;36.62
75006;BME280;63553;51.814;4.600;2023-03-01T11:19:14;102957.53;;;18.49;35.72
75006;BME280;63553;51.814;4.600;2023-03-01T11:22:11;102961.97;;;18.19;35.93
75006;BME280;63553;51.814;4.600;2023-03-01T11:24:39;102953.81;;;17.87;35.93
75006;BME280;63553;51.814;4.600;2023-03-01T11:27:17;102952.66;;;17.65;36.70
75006;BME280;63553;51.814;4.600;2023-03-01T11:29:46;102946.34;;;17.46;36.47
75006;BME280;63553;51.814;4.600;2023-03-01T11:32:17;102949.97;;;17.25;36.91
75006;BME280;63553;51.814;4.600;2023-03-01T11:34:49;102956.44;;;17.11;37.13
75006;BME280;63553;51.814;4.600;2023-03-01T11:37:26;102940.75;;;16.97;37.20
75006;BME280;63553;51.814;4.600;2023-03-01T11:39:59;102938.47;;;16.85;36.82
75006;BME280;63553;51.814;4.600;2023-03-01T11:42:53;102929.03;;;16.67;37.22
75006;BME280;63553;51.814;4.600;2023-03-01T11:45:22;102930.69;;;16.55;37.79
75006;BME280;63553;51.814;4.600;2023-03-01T11:50:35;102916.69;;;16.36;38.39
75006;BME280;63553;51.814;4.600;2023-03-01T11:56:05;102924.63;;;16.21;40.94
75006;BME280;63553;51.814;4.600;2023-03-01T12:01:46;102927.19;;;16.17;39.66
75006;BME280;63553;51.814;4.600;2023-03-01T12:10:07;102896.75;;;15.78;37.84
75006;BME280;63553;51.814;4.600;2023-03-01T12:18:16;102925.16;;;15.39;38.16
75006;BME280;63553;51.814;4.600;2023-03-01T12:21:19;102919.06;;;15.32;38.27
75006;BME280;63553;51.814;4.600;2023-03-01T12:26:42;102907.53;;;15.20;38.05
75006;BME280;63553;51.814;4.600;2023-03-01T12:50:51;102872.81;;;14.79;37.71
75006;BME280;63553;51.814;4.600;2023-03-01T12:53:27;102876.81;;;14.73;37.54
75006;BME280;63553;51.814;4.600;2023-03-01T12:55:56;102869.63;;;14.67;37.91
75006;BME280;63553;51.814;4.600;2023-03-01T12:58:59;102872.78;;;14.60;37.54
75006;BME280;63553;51.814;4.600;2023-03-01T13:04:43;102871.78;;;14.51;37.37
75006;BME280;63553;51.814;4.600;2023-03-01T13:07:26;102874.66;;;14.46;38.78
75006;BME280;63553;51.814;4.600;2023-03-01T13:20:18;102849.22;;;14.42;40.05
75006;BME280;63553;51.814;4.600;2023-03-01T13:22:45;102841.13;;;14.41;39.64
75006;BME280;63553;51.814;4.600;2023-03-01T13:25:17;102837.56;;;14.35;40.07
75006;BME280;63553;51.814;4.600;2023-03-01T13:27:44;102832.28;;;14.34;39.91
75006;BME280;63553;51.814;4.600;2023-03-01T13:33:45;102835.88;;;14.34;40.31
75006;BME280;63553;51.814;4.600;2023-03-01T13:39:05;102827.81;;;14.33;38.03
75006;BME280;63553;51.814;4.600;2023-03-01T13:41:53;102824.03;;;14.19;38.82
75006;BME280;63553;51.814;4.600;2023-03-01T13:44:36;102816.84;;;14.13;39.05
75006;BME280;63553;51.814;4.600;2023-03-01T13:49:56;102805.69;;;14.08;38.79
75006;BME280;63553;51.814;4.600;2023-03-01T13:55:36;102800.41;;;14.06;39.31
75006;BME280;63553;51.814;4.600;2023-03-01T13:58:13;102786.94;;;14.08;39.38
75006;BME280;63553;51.814;4.600;2023-03-01T14:00:40;102783.09;;;14.04;38.71
75006;BME280;63553;51.814;4.600;2023-03-01T14:03:14;102783.91;;;14.05;38.73
75006;BME280;63553;51.814;4.600;2023-03-01T14:05:42;102777.50;;;14.04;38.97
75006;BME280;63553;51.814;4.600;2023-03-01T14:08:20;102776.09;;;14.02;38.53
75006;BME280;63553;51.814;4.600;2023-03-01T14:14:08;102758.34;;;13.93;38.55
75006;BME280;63553;51.814;4.600;2023-03-01T14:19:43;102761.16;;;13.93;40.02
75006;BME280;63553;51.814;4.600;2023-03-01T14:22:29;102748.53;;;13.95;39.71
75006;BME280;63553;51.814;4.600;2023-03-01T14:24:57;102739.00;;;13.96;38.18
75006;BME280;63553;51.814;4.600;2023-03-01T14:27:26;102739.00;;;13.96;37.63
75006;BME280;63553;51.814;4.600;2023-03-01T14:30:00;102729.00;;;13.90;38.07
75006;BME280;63553;51.814;4.600;2023-03-01T14:32:31;102726.28;;;13.85;38.16
75006;BME280;63553;51.814;4.600;2023-03-01T14:34:58;102718.78;;;13.80;38.81
75006;BME280;63553;51.814;4.600;2023-03-01T14:37:30;102713.72;;;13.82;38.11
75006;BME280;63553;51.814;4.600;2023-03-01T14:39:57;102708.22;;;13.77;38.15
75006;BME280;63553;51.814;4.600;2023-03-01T14:42:25;102712.13;;;13.76;38.48